sensor_id;sensor_type;location;lat;lon;timestamp;P1;durP1;ratioP1;P2;durP2;ratioP2
59062;SDS011;44851;45.648;9.004;2023-12-20T00:01:15;21.33;;;17.20;;
59062;SDS011;44851;45.648;9.004;2023-12-20T00:03:41;23.53;;;17.90;;
59062;SDS011;44851;45.648;9.004;2023-12-20T00:06:06;23.27;;;19.30;;
59062;SDS011;44851;45.648;9.004;2023-12-20T00:08:32;23.43;;;18.03;;
59062;SDS011;44851;45.648;9.004;2023-12-20T00:10:57;20.30;;;16.17;;
59062;SDS011;44851;45.648;9.004;2023-12-20T00:13:22;17.67;;;14.70;;
59062;SDS011;44851;45.648;9.004;2023-12-20T00:15:47;16.93;;;14.17;;
59062;SDS011;44851;45.648;9.004;2023-12-20T00:18:13;18.47;;;15.80;;
59062;SDS011;44851;45.648;9.004;2023-12-20T00:20:38;22.70;;;18.53;;
59062;SDS011;44851;45.648;9.004;2023-12-20T00:23:04;17.07;;;13.87;;
59062;SDS011;44851;45.648;9.004;2023-12-20T00:25:29;16.47;;;14.10;;
59062;SDS011;44851;45.648;9.004;2023-12-20T00:27:54;15.77;;;13.83;;
59062;SDS011;44851;45.648;9.004;2023-12-20T00:30:19;16.07;;;12.73;;
59062;SDS011;44851;45.648;9.004;2023-12-20T00:32:45;15.80;;;13.97;;
59062;SDS011;44851;45.648;9.004;2023-12-20T00:35:13;15.37;;;13.23;;
59062;SDS011;44851;45.648;9.004;2023-12-20T00:37:39;15.13;;;12.63;;
59062;SDS011;44851;45.648;9.004;2023-12-20T00:40:05;15.83;;;12.93;;
59062;SDS011;44851;45.648;9.004;2023-12-20T00:42:30;15.20;;;12.10;;
59062;SDS011;44851;45.648;9.004;2023-12-20T00:44:56;15.17;;;10.97;;
59062;SDS011;44851;45.648;9.004;2023-12-20T00:47:21;13.63;;;11.33;;
59062;SDS011;44851;45.648;9.004;2023-12-20T00:49:47;15.13;;;12.47;;
59062;SDS011;44851;45.648;9.004;2023-12-20T00:52:12;17.83;;;12.30;;
59062;SDS011;44851;45.648;9.004;2023-12-20T00:54:37;14.90;;;11.97;;
59062;SDS011;44851;45.648;9.004;2023-12-20T00:57:03;13.13;;;10.83;;
59062;SDS011;44851;45.648;9.004;2023-12-20T00:59:28;13.37;;;10.83;;
59062;SDS011;44851;45.648;9.004;2023-12-20T01:01:54;11.70;;;10.43;;
59062;SDS011;44851;45.648;9.004;2023-12-20T01:04:19;14.17;;;11.40;;
59062;SDS011;44851;45.648;9.004;2023-12-20T01:06:44;16.50;;;10.80;;
59062;SDS011;44851;45.648;9.004;2023-12-20T01:09:09;13.93;;;11.13;;
59062;SDS011;44851;45.648;9.004;2023-12-20T01:11:35;11.43;;;9.53;;
59062;SDS011;44851;45.648;9.004;2023-12-20T01:14:00;12.70;;;10.43;;
59062;SDS011;44851;45.648;9.004;2023-12-20T01:16:26;13.23;;;10.70;;
59062;SDS011;44851;45.648;9.004;2023-12-20T01:18:51;11.17;;;9.70;;
59062;SDS011;44851;45.648;9.004;2023-12-20T01:21:16;12.63;;;9.60;;
59062;SDS011;44851;45.648;9.004;2023-12-20T01:23:42;12.10;;;10.37;;
59062;SDS011;44851;45.648;9.004;2023-12-20T01:26:07;12.27;;;10.37;;
59062;SDS011;44851;45.648;9.004;2023-12-20T01:28:32;11.60;;;9.50;;
59062;SDS011;44851;45.648;9.004;2023-12-20T01:30:58;33.13;;;19.53;;
59062;SDS011;44851;45.648;9.004;2023-12-20T01:33:23;34.27;;;20.00;;
59062;SDS011;44851;45.648;9.004;2023-12-20T01:35:48;20.47;;;14.40;;
59062;SDS011;44851;45.648;9.004;2023-12-20T01:38:14;16.43;;;12.73;;
59062;SDS011;44851;45.648;9.004;2023-12-20T01:40:39;15.10;;;11.63;;
59062;SDS011;44851;45.648;9.004;2023-12-20T01:43:06;13.40;;;10.60;;
59062;SDS011;44851;45.648;9.004;2023-12-20T01:45:33;13.37;;;10.53;;
59062;SDS011;44851;45.648;9.004;2023-12-20T01:47:59;11.63;;;10.40;;
59062;SDS011;44851;45.648;9.004;2023-12-20T01:50:25;10.97;;;9.70;;
59062;SDS011;44851;45.648;9.004;2023-12-20T01:52:51;11.87;;;9.67;;
59062;SDS011;44851;45.648;9.004;2023-12-20T01:55:20;12.07;;;10.23;;
59062;SDS011;44851;45.648;9.004;2023-12-20T01:57:46;11.37;;;9.30;;
59062;SDS011;44851;45.648;9.004;2023-12-20T02:00:12;13.43;;;9.83;;
59062;SDS011;44851;45.648;9.004;2023-12-20T02:02:39;12.43;;;10.17;;
59062;SDS011;44851;45.648;9.004;2023-12-20T02:05:08;13.37;;;9.87;;
59062;SDS011;44851;45.648;9.004;2023-12-20T02:07:34;10.13;;;9.10;;
59062;SDS011;44851;45.648;9.004;2023-12-20T02:10:00;11.57;;;9.93;;
59062;SDS011;44851;45.648;9.004;2023-12-20T02:12:29;11.63;;;9.83;;
59062;SDS011;44851;45.648;9.004;2023-12-20T02:14:55;10.90;;;9.60;;
59062;SDS011;44851;45.648;9.004;2023-12-20T02:17:20;12.03;;;9.30;;
59062;SDS011;44851;45.648;9.004;2023-12-20T02:19:47;11.57;;;9.60;;
59062;SDS011;44851;45.648;9.004;2023-12-20T02:22:12;11.03;;;9.73;;
59062;SDS011;44851;45.648;9.004;2023-12-20T02:24:38;11.57;;;9.13;;
59062;SDS011;44851;45.648;9.004;2023-12-20T02:27:04;11.20;;;9.70;;
59062;SDS011;44851;45.648;9.004;2023-12-20T02:29:32;10.80;;;9.60;;
59062;SDS011;44851;45.648;9.004;2023-12-20T02:32:00;10.83;;;8.67;;
59062;SDS011;44851;45.648;9.004;2023-12-20T02:34:26;11.57;;;8.97;;
59062;SDS011;44851;45.648;9.004;2023-12-20T02:36:52;9.60;;;8.47;;
59062;SDS011;44851;45.648;9.004;2023-12-20T02:39:17;12.17;;;8.70;;
59062;SDS011;44851;45.648;9.004;2023-12-20T02:41:43;11.23;;;8.60;;
59062;SDS011;44851;45.648;9.004;2023-12-20T02:44:09;10.07;;;8.83;;
59062;SDS011;44851;45.648;9.004;2023-12-20T02:46:34;10.70;;;9.10;;
59062;SDS011;44851;45.648;9.004;2023-12-20T02:48:59;9.77;;;8.40;;
59062;SDS011;44851;45.648;9.004;2023-12-20T02:51:25;9.77;;;7.97;;
59062;SDS011;44851;45.648;9.004;2023-12-20T02:53:50;9.10;;;8.10;;
59062;SDS011;44851;45.648;9.004;2023-12-20T02:56:16;8.83;;;7.93;;
59062;SDS011;44851;45.648;9.004;2023-12-20T02:58:41;10.47;;;9.30;;
59062;SDS011;44851;45.648;9.004;2023-12-20T03:01:06;10.23;;;8.30;;
59062;SDS011;44851;45.648;9.004;2023-12-20T03:03:32;10.50;;;9.20;;
59062;SDS011;44851;45.648;9.004;2023-12-20T03:05:57;10.37;;;8.63;;
59062;SDS011;44851;45.648;9.004;2023-12-20T03:08:23;9.17;;;8.17;;
59062;SDS011;44851;45.648;9.004;2023-12-20T03:10:49;9.30;;;8.30;;
59062;SDS011;44851;45.648;9.004;2023-12-20T03:13:14;10.33;;;7.80;;
59062;SDS011;44851;45.648;9.004;2023-12-20T03:15:40;11.47;;;8.77;;
59062;SDS011;44851;45.648;9.004;2023-12-20T03:18:05;9.97;;;8.97;;
59062;SDS011;44851;45.648;9.004;2023-12-20T03:20:31;11.37;;;8.80;;
59062;SDS011;44851;45.648;9.004;2023-12-20T03:22:59;9.63;;;8.63;;
59062;SDS011;44851;45.648;9.004;2023-12-20T03:25:27;9.80;;;8.77;;
59062;SDS011;44851;45.648;9.004;2023-12-20T03:27:52;10.00;;;9.00;;
59062;SDS011;44851;45.648;9.004;2023-12-20T03:30:18;10.20;;;8.97;;
59062;SDS011;44851;45.648;9.004;2023-12-20T03:32:43;10.03;;;8.87;;
59062;SDS011;44851;45.648;9.004;2023-12-20T03:35:09;9.70;;;7.87;;
59062;SDS011;44851;45.648;9.004;2023-12-20T03:37:34;11.00;;;8.63;;
59062;SDS011;44851;45.648;9.004;2023-12-20T03:40:00;9.43;;;8.47;;
59062;SDS011;44851;45.648;9.004;2023-12-20T03:42:25;10.70;;;9.10;;
59062;SDS011;44851;45.648;9.004;2023-12-20T03:44:51;10.97;;;8.40;;
59062;SDS011;44851;45.648;9.004;2023-12-20T03:47:16;11.20;;;9.07;;
59062;SDS011;44851;45.648;9.004;2023-12-20T03:49:41;9.80;;;8.20;;
59062;SDS011;44851;45.648;9.004;2023-12-20T03:52:07;9.47;;;8.33;;
59062;SDS011;44851;45.648;9.004;2023-12-20T03:54:32;9.90;;;8.07;;
59062;SDS011;44851;45.648;9.004;2023-12-20T03:56:58;11.00;;;8.10;;
59062;SDS011;44851;45.648;9.004;2023-12-20T03:59:23;10.17;;;8.20;;
59062;SDS011;44851;45.648;9.004;2023-12-20T04:01:49;11.33;;;8.93;;
59062;SDS011;44851;45.648;9.004;2023-12-20T04:04:14;9.97;;;8.87;;
59062;SDS011;44851;45.648;9.004;2023-12-20T04:06:39;12.13;;;9.30;;
59062;SDS011;44851;45.648;9.004;2023-12-20T04:09:05;10.67;;;9.23;;
59062;SDS011;44851;45.648;9.004;2023-12-20T04:11:30;11.13;;;8.97;;
59062;SDS011;44851;45.648;9.004;2023-12-20T04:13:56;11.30;;;8.87;;
59062;SDS011;44851;45.648;9.004;2023-12-20T04:16:21;9.97;;;8.93;;
59062;SDS011;44851;45.648;9.004;2023-12-20T04:18:46;12.87;;;9.70;;
59062;SDS011;44851;45.648;9.004;2023-12-20T04:21:11;9.13;;;8.17;;
59062;SDS011;44851;45.648;9.004;2023-12-20T04:23:37;10.87;;;9.37;;
59062;SDS011;44851;45.648;9.004;2023-12-20T04:26:02;10.13;;;9.00;;
59062;SDS011;44851;45.648;9.004;2023-12-20T04:28:28;11.07;;;9.17;;
59062;SDS011;44851;45.648;9.004;2023-12-20T04:30:55;10.50;;;9.27;;
59062;SDS011;44851;45.648;9.004;2023-12-20T04:33:20;9.60;;;8.60;;
59062;SDS011;44851;45.648;9.004;2023-12-20T04:35:46;11.30;;;9.30;;
59062;SDS011;44851;45.648;9.004;2023-12-20T04:38:11;10.87;;;9.23;;
59062;SDS011;44851;45.648;9.004;2023-12-20T04:40:37;10.60;;;8.80;;
59062;SDS011;44851;45.648;9.004;2023-12-20T04:43:02;13.03;;;9.70;;
59062;SDS011;44851;45.648;9.004;2023-12-20T04:45:27;10.97;;;9.00;;
59062;SDS011;44851;45.648;9.004;2023-12-20T04:47:53;11.00;;;9.00;;
59062;SDS011;44851;45.648;9.004;2023-12-20T04:50:18;10.07;;;8.63;;
59062;SDS011;44851;45.648;9.004;2023-12-20T04:52:44;10.33;;;9.10;;
59062;SDS011;44851;45.648;9.004;2023-12-20T04:55:10;10.07;;;8.53;;
59062;SDS011;44851;45.648;9.004;2023-12-20T04:57:35;10.50;;;9.40;;
59062;SDS011;44851;45.648;9.004;2023-12-20T05:00:01;11.73;;;9.40;;
59062;SDS011;44851;45.648;9.004;2023-12-20T05:02:26;11.83;;;9.20;;
59062;SDS011;44851;45.648;9.004;2023-12-20T05:04:51;12.20;;;9.30;;
59062;SDS011;44851;45.648;9.004;2023-12-20T05:07:17;10.43;;;9.10;;
59062;SDS011;44851;45.648;9.004;2023-12-20T05:09:42;10.50;;;9.40;;
59062;SDS011;44851;45.648;9.004;2023-12-20T05:12:07;11.67;;;10.27;;
59062;SDS011;44851;45.648;9.004;2023-12-20T05:14:33;10.73;;;9.60;;
59062;SDS011;44851;45.648;9.004;2023-12-20T05:16:58;10.73;;;9.63;;
59062;SDS011;44851;45.648;9.004;2023-12-20T05:19:24;11.33;;;9.70;;
59062;SDS011;44851;45.648;9.004;2023-12-20T05:21:49;11.40;;;9.33;;
59062;SDS011;44851;45.648;9.004;2023-12-20T05:24:15;10.20;;;9.00;;
59062;SDS011;44851;45.648;9.004;2023-12-20T05:26:40;15.80;;;10.60;;
59062;SDS011;44851;45.648;9.004;2023-12-20T05:29:06;13.17;;;10.57;;
59062;SDS011;44851;45.648;9.004;2023-12-20T05:31:31;10.63;;;9.17;;
59062;SDS011;44851;45.648;9.004;2023-12-20T05:33:57;11.47;;;10.00;;
59062;SDS011;44851;45.648;9.004;2023-12-20T05:36:23;12.50;;;10.53;;
59062;SDS011;44851;45.648;9.004;2023-12-20T05:38:48;12.00;;;9.37;;
59062;SDS011;44851;45.648;9.004;2023-12-20T05:41:14;13.13;;;11.40;;
59062;SDS011;44851;45.648;9.004;2023-12-20T05:43:39;14.00;;;11.00;;
59062;SDS011;44851;45.648;9.004;2023-12-20T05:46:04;12.63;;;10.97;;
59062;SDS011;44851;45.648;9.004;2023-12-20T05:48:30;14.83;;;12.13;;
59062;SDS011;44851;45.648;9.004;2023-12-20T05:50:55;16.57;;;12.87;;
59062;SDS011;44851;45.648;9.004;2023-12-20T05:53:20;15.40;;;12.30;;
59062;SDS011;44851;45.648;9.004;2023-12-20T05:55:46;15.33;;;12.17;;
59062;SDS011;44851;45.648;9.004;2023-12-20T05:58:11;15.00;;;12.53;;
59062;SDS011;44851;45.648;9.004;2023-12-20T06:00:37;14.07;;;11.90;;
59062;SDS011;44851;45.648;9.004;2023-12-20T06:03:02;16.00;;;13.33;;
59062;SDS011;44851;45.648;9.004;2023-12-20T06:05:29;17.33;;;12.23;;
59062;SDS011;44851;45.648;9.004;2023-12-20T06:07:55;18.00;;;13.10;;
59062;SDS011;44851;45.648;9.004;2023-12-20T06:10:26;16.63;;;12.50;;
59062;SDS011;44851;45.648;9.004;2023-12-20T06:12:51;15.17;;;11.93;;
59062;SDS011;44851;45.648;9.004;2023-12-20T06:15:17;18.53;;;12.73;;
59062;SDS011;44851;45.648;9.004;2023-12-20T06:17:42;16.30;;;12.73;;
59062;SDS011;44851;45.648;9.004;2023-12-20T06:20:08;15.40;;;12.77;;
59062;SDS011;44851;45.648;9.004;2023-12-20T06:22:34;14.63;;;12.43;;
59062;SDS011;44851;45.648;9.004;2023-12-20T06:25:00;14.97;;;12.77;;
59062;SDS011;44851;45.648;9.004;2023-12-20T06:27:26;15.33;;;13.23;;
59062;SDS011;44851;45.648;9.004;2023-12-20T06:29:51;15.60;;;12.13;;
59062;SDS011;44851;45.648;9.004;2023-12-20T06:32:16;16.53;;;13.17;;
59062;SDS011;44851;45.648;9.004;2023-12-20T06:34:42;18.90;;;13.87;;
59062;SDS011;44851;45.648;9.004;2023-12-20T06:37:07;18.77;;;13.63;;
59062;SDS011;44851;45.648;9.004;2023-12-20T06:39:32;20.37;;;13.83;;
59062;SDS011;44851;45.648;9.004;2023-12-20T06:41:59;19.07;;;14.13;;
59062;SDS011;44851;45.648;9.004;2023-12-20T06:44:24;17.60;;;13.63;;
59062;SDS011;44851;45.648;9.004;2023-12-20T06:46:50;18.53;;;14.30;;
59062;SDS011;44851;45.648;9.004;2023-12-20T06:49:15;17.93;;;14.83;;
59062;SDS011;44851;45.648;9.004;2023-12-20T06:51:40;19.93;;;13.77;;
59062;SDS011;44851;45.648;9.004;2023-12-20T06:54:06;19.13;;;14.37;;
59062;SDS011;44851;45.648;9.004;2023-12-20T06:56:32;20.20;;;15.60;;
59062;SDS011;44851;45.648;9.004;2023-12-20T06:58:57;18.70;;;14.70;;
59062;SDS011;44851;45.648;9.004;2023-12-20T07:01:22;21.80;;;16.73;;
59062;SDS011;44851;45.648;9.004;2023-12-20T07:03:48;18.40;;;15.33;;
59062;SDS011;44851;45.648;9.004;2023-12-20T07:06:13;20.10;;;16.67;;
59062;SDS011;44851;45.648;9.004;2023-12-20T07:08:41;21.47;;;17.10;;
59062;SDS011;44851;45.648;9.004;2023-12-20T07:11:06;22.77;;;17.53;;
59062;SDS011;44851;45.648;9.004;2023-12-20T07:13:32;26.17;;;16.80;;
59062;SDS011;44851;45.648;9.004;2023-12-20T07:15:57;20.67;;;16.67;;
59062;SDS011;44851;45.648;9.004;2023-12-20T07:18:23;21.17;;;16.40;;
59062;SDS011;44851;45.648;9.004;2023-12-20T07:20:48;21.63;;;17.00;;
59062;SDS011;44851;45.648;9.004;2023-12-20T07:23:14;24.13;;;16.70;;
59062;SDS011;44851;45.648;9.004;2023-12-20T07:25:39;27.83;;;18.00;;
59062;SDS011;44851;45.648;9.004;2023-12-20T07:28:04;27.63;;;18.60;;
59062;SDS011;44851;45.648;9.004;2023-12-20T07:30:30;23.63;;;18.53;;
59062;SDS011;44851;45.648;9.004;2023-12-20T07:32:55;22.60;;;18.30;;
59062;SDS011;44851;45.648;9.004;2023-12-20T07:35:21;22.67;;;17.70;;
59062;SDS011;44851;45.648;9.004;2023-12-20T07:37:48;25.93;;;18.47;;
59062;SDS011;44851;45.648;9.004;2023-12-20T07:40:13;22.80;;;19.00;;
59062;SDS011;44851;45.648;9.004;2023-12-20T07:42:38;21.67;;;17.50;;
59062;SDS011;44851;45.648;9.004;2023-12-20T07:45:04;23.07;;;18.30;;
59062;SDS011;44851;45.648;9.004;2023-12-20T07:47:30;23.73;;;17.60;;
59062;SDS011;44851;45.648;9.004;2023-12-20T07:49:55;23.47;;;17.80;;
59062;SDS011;44851;45.648;9.004;2023-12-20T07:52:20;25.50;;;16.83;;
59062;SDS011;44851;45.648;9.004;2023-12-20T07:54:47;22.27;;;16.97;;
59062;SDS011;44851;45.648;9.004;2023-12-20T07:57:13;24.50;;;18.43;;
59062;SDS011;44851;45.648;9.004;2023-12-20T07:59:38;21.20;;;16.80;;
59062;SDS011;44851;45.648;9.004;2023-12-20T08:02:04;24.13;;;17.50;;
59062;SDS011;44851;45.648;9.004;2023-12-20T08:04:29;26.23;;;16.10;;
59062;SDS011;44851;45.648;9.004;2023-12-20T08:06:54;22.77;;;17.47;;
59062;SDS011;44851;45.648;9.004;2023-12-20T08:09:20;22.70;;;16.80;;
59062;SDS011;44851;45.648;9.004;2023-12-20T08:11:46;22.53;;;17.50;;
59062;SDS011;44851;45.648;9.004;2023-12-20T08:14:11;25.53;;;17.73;;
59062;SDS011;44851;45.648;9.004;2023-12-20T08:16:37;23.23;;;16.80;;
59062;SDS011;44851;45.648;9.004;2023-12-20T08:19:02;22.40;;;16.87;;
59062;SDS011;44851;45.648;9.004;2023-12-20T08:21:27;22.40;;;16.97;;
59062;SDS011;44851;45.648;9.004;2023-12-20T08:23:53;36.47;;;24.90;;
59062;SDS011;44851;45.648;9.004;2023-12-20T08:26:18;39.40;;;25.70;;
59062;SDS011;44851;45.648;9.004;2023-12-20T08:28:45;30.60;;;23.20;;
59062;SDS011;44851;45.648;9.004;2023-12-20T08:31:13;28.47;;;21.83;;
59062;SDS011;44851;45.648;9.004;2023-12-20T08:33:40;25.53;;;19.30;;
59062;SDS011;44851;45.648;9.004;2023-12-20T08:36:05;22.97;;;18.87;;
59062;SDS011;44851;45.648;9.004;2023-12-20T08:38:31;22.90;;;18.47;;
59062;SDS011;44851;45.648;9.004;2023-12-20T08:40:56;23.07;;;18.97;;
59062;SDS011;44851;45.648;9.004;2023-12-20T08:43:22;25.57;;;19.33;;
59062;SDS011;44851;45.648;9.004;2023-12-20T08:45:47;23.40;;;19.37;;
59062;SDS011;44851;45.648;9.004;2023-12-20T08:48:12;24.23;;;19.17;;
59062;SDS011;44851;45.648;9.004;2023-12-20T08:50:38;24.57;;;19.40;;
59062;SDS011;44851;45.648;9.004;2023-12-20T08:53:04;27.73;;;19.87;;
59062;SDS011;44851;45.648;9.004;2023-12-20T08:55:29;25.77;;;19.33;;
59062;SDS011;44851;45.648;9.004;2023-12-20T08:57:56;25.20;;;18.50;;
59062;SDS011;44851;45.648;9.004;2023-12-20T09:00:21;21.50;;;18.00;;
59062;SDS011;44851;45.648;9.004;2023-12-20T09:02:49;25.50;;;19.47;;
59062;SDS011;44851;45.648;9.004;2023-12-20T09:05:14;23.90;;;19.57;;
59062;SDS011;44851;45.648;9.004;2023-12-20T09:07:40;24.53;;;18.33;;
59062;SDS011;44851;45.648;9.004;2023-12-20T09:10:05;25.17;;;19.03;;
59062;SDS011;44851;45.648;9.004;2023-12-20T09:12:31;30.83;;;19.23;;
59062;SDS011;44851;45.648;9.004;2023-12-20T09:14:56;24.00;;;19.30;;
59062;SDS011;44851;45.648;9.004;2023-12-20T09:17:22;24.97;;;20.30;;
59062;SDS011;44851;45.648;9.004;2023-12-20T09:19:48;25.07;;;19.07;;
59062;SDS011;44851;45.648;9.004;2023-12-20T09:22:13;26.20;;;18.83;;
59062;SDS011;44851;45.648;9.004;2023-12-20T09:24:39;26.30;;;18.97;;
59062;SDS011;44851;45.648;9.004;2023-12-20T09:27:05;24.17;;;18.60;;
59062;SDS011;44851;45.648;9.004;2023-12-20T09:29:30;26.07;;;20.80;;
59062;SDS011;44851;45.648;9.004;2023-12-20T09:31:56;24.80;;;18.93;;
59062;SDS011;44851;45.648;9.004;2023-12-20T09:34:22;27.27;;;19.63;;
59062;SDS011;44851;45.648;9.004;2023-12-20T09:36:48;22.67;;;20.17;;
59062;SDS011;44851;45.648;9.004;2023-12-20T09:39:13;28.77;;;21.30;;
59062;SDS011;44851;45.648;9.004;2023-12-20T09:41:43;27.27;;;21.40;;
59062;SDS011;44851;45.648;9.004;2023-12-20T09:44:14;23.87;;;20.67;;
59062;SDS011;44851;45.648;9.004;2023-12-20T09:46:42;26.60;;;21.03;;
59062;SDS011;44851;45.648;9.004;2023-12-20T09:49:10;27.07;;;21.63;;
59062;SDS011;44851;45.648;9.004;2023-12-20T09:51:36;34.87;;;21.93;;
59062;SDS011;44851;45.648;9.004;2023-12-20T09:54:03;27.57;;;21.47;;
59062;SDS011;44851;45.648;9.004;2023-12-20T09:56:28;27.43;;;21.00;;
59062;SDS011;44851;45.648;9.004;2023-12-20T09:58:54;23.93;;;19.67;;
59062;SDS011;44851;45.648;9.004;2023-12-20T10:01:20;28.50;;;19.37;;
59062;SDS011;44851;45.648;9.004;2023-12-20T10:03:46;25.33;;;20.97;;
59062;SDS011;44851;45.648;9.004;2023-12-20T10:06:11;26.30;;;19.60;;
59062;SDS011;44851;45.648;9.004;2023-12-20T10:08:37;28.30;;;20.00;;
59062;SDS011;44851;45.648;9.004;2023-12-20T10:11:04;25.40;;;20.60;;
59062;SDS011;44851;45.648;9.004;2023-12-20T10:13:30;30.37;;;21.73;;
59062;SDS011;44851;45.648;9.004;2023-12-20T10:15:55;25.47;;;20.47;;
59062;SDS011;44851;45.648;9.004;2023-12-20T10:18:22;24.73;;;20.87;;
59062;SDS011;44851;45.648;9.004;2023-12-20T10:20:47;26.70;;;20.70;;
59062;SDS011;44851;45.648;9.004;2023-12-20T10:23:13;26.50;;;20.80;;
59062;SDS011;44851;45.648;9.004;2023-12-20T10:25:40;27.70;;;22.17;;
59062;SDS011;44851;45.648;9.004;2023-12-20T10:28:10;24.90;;;20.53;;
59062;SDS011;44851;45.648;9.004;2023-12-20T10:30:42;24.67;;;20.63;;
59062;SDS011;44851;45.648;9.004;2023-12-20T10:33:08;24.53;;;20.27;;
59062;SDS011;44851;45.648;9.004;2023-12-20T10:35:34;24.30;;;19.17;;
59062;SDS011;44851;45.648;9.004;2023-12-20T10:38:02;25.37;;;19.97;;
59062;SDS011;44851;45.648;9.004;2023-12-20T10:40:29;23.43;;;19.80;;
59062;SDS011;44851;45.648;9.004;2023-12-20T10:42:55;24.40;;;20.50;;
59062;SDS011;44851;45.648;9.004;2023-12-20T10:45:21;26.77;;;20.50;;
59062;SDS011;44851;45.648;9.004;2023-12-20T10:47:48;26.80;;;21.53;;
59062;SDS011;44851;45.648;9.004;2023-12-20T10:50:15;27.93;;;21.67;;
59062;SDS011;44851;45.648;9.004;2023-12-20T10:52:40;25.50;;;20.60;;
59062;SDS011;44851;45.648;9.004;2023-12-20T10:55:07;28.20;;;22.63;;
59062;SDS011;44851;45.648;9.004;2023-12-20T10:57:33;29.17;;;22.80;;
59062;SDS011;44851;45.648;9.004;2023-12-20T11:00:01;28.53;;;21.67;;
59062;SDS011;44851;45.648;9.004;2023-12-20T11:02:32;28.53;;;22.67;;
59062;SDS011;44851;45.648;9.004;2023-12-20T11:05:02;25.00;;;21.47;;
59062;SDS011;44851;45.648;9.004;2023-12-20T11:07:39;25.20;;;20.83;;
59062;SDS011;44851;45.648;9.004;2023-12-20T11:10:19;26.10;;;20.47;;
59062;SDS011;44851;45.648;9.004;2023-12-20T11:12:54;26.80;;;21.73;;
59062;SDS011;44851;45.648;9.004;2023-12-20T11:15:21;25.37;;;20.83;;
59062;SDS011;44851;45.648;9.004;2023-12-20T11:17:54;25.67;;;19.87;;
59062;SDS011;44851;45.648;9.004;2023-12-20T11:20:23;21.07;;;18.30;;
59062;SDS011;44851;45.648;9.004;2023-12-20T11:22:53;27.03;;;19.63;;
59062;SDS011;44851;45.648;9.004;2023-12-20T11:25:19;24.07;;;19.87;;
59062;SDS011;44851;45.648;9.004;2023-12-20T11:27:47;29.63;;;21.47;;
59062;SDS011;44851;45.648;9.004;2023-12-20T11:33:15;23.30;;;19.73;;
59062;SDS011;44851;45.648;9.004;2023-12-20T11:35:41;21.93;;;19.53;;
59062;SDS011;44851;45.648;9.004;2023-12-20T11:38:09;26.23;;;19.40;;
59062;SDS011;44851;45.648;9.004;2023-12-20T11:40:35;32.27;;;20.87;;
59062;SDS011;44851;45.648;9.004;2023-12-20T11:43:02;25.93;;;20.90;;
59062;SDS011;44851;45.648;9.004;2023-12-20T11:45:28;23.47;;;20.93;;
59062;SDS011;44851;45.648;9.004;2023-12-20T11:47:53;27.87;;;21.47;;
59062;SDS011;44851;45.648;9.004;2023-12-20T11:50:19;24.53;;;20.30;;
59062;SDS011;44851;45.648;9.004;2023-12-20T11:52:47;27.87;;;21.63;;
59062;SDS011;44851;45.648;9.004;2023-12-20T11:55:13;27.17;;;20.60;;
59062;SDS011;44851;45.648;9.004;2023-12-20T11:57:39;24.77;;;21.30;;
59062;SDS011;44851;45.648;9.004;2023-12-20T12:00:05;27.53;;;22.07;;
59062;SDS011;44851;45.648;9.004;2023-12-20T12:02:31;28.27;;;21.07;;
59062;SDS011;44851;45.648;9.004;2023-12-20T12:04:57;27.70;;;21.93;;
59062;SDS011;44851;45.648;9.004;2023-12-20T12:07:23;28.30;;;22.17;;
59062;SDS011;44851;45.648;9.004;2023-12-20T12:09:49;28.17;;;22.33;;
59062;SDS011;44851;45.648;9.004;2023-12-20T12:12:15;30.80;;;22.17;;
59062;SDS011;44851;45.648;9.004;2023-12-20T12:14:41;30.00;;;21.00;;
59062;SDS011;44851;45.648;9.004;2023-12-20T12:17:13;28.10;;;21.17;;
59062;SDS011;44851;45.648;9.004;2023-12-20T12:19:40;30.33;;;27.07;;
59062;SDS011;44851;45.648;9.004;2023-12-20T12:22:07;27.37;;;21.43;;
59062;SDS011;44851;45.648;9.004;2023-12-20T12:24:36;24.37;;;21.43;;
59062;SDS011;44851;45.648;9.004;2023-12-20T12:27:02;29.93;;;21.17;;
59062;SDS011;44851;45.648;9.004;2023-12-20T12:29:28;24.37;;;21.77;;
59062;SDS011;44851;45.648;9.004;2023-12-20T12:31:54;23.70;;;21.07;;
59062;SDS011;44851;45.648;9.004;2023-12-20T12:34:20;25.90;;;21.87;;
59062;SDS011;44851;45.648;9.004;2023-12-20T12:36:45;25.17;;;22.13;;
59062;SDS011;44851;45.648;9.004;2023-12-20T12:39:14;24.80;;;22.20;;
59062;SDS011;44851;45.648;9.004;2023-12-20T12:41:40;28.17;;;23.27;;
59062;SDS011;44851;45.648;9.004;2023-12-20T12:44:06;27.47;;;23.93;;
59062;SDS011;44851;45.648;9.004;2023-12-20T12:46:31;28.57;;;24.03;;
59062;SDS011;44851;45.648;9.004;2023-12-20T12:48:57;28.17;;;23.10;;
59062;SDS011;44851;45.648;9.004;2023-12-20T12:51:23;26.90;;;22.30;;
59062;SDS011;44851;45.648;9.004;2023-12-20T12:53:48;25.13;;;20.97;;
59062;SDS011;44851;45.648;9.004;2023-12-20T12:56:15;24.70;;;22.10;;
59062;SDS011;44851;45.648;9.004;2023-12-20T12:58:41;24.63;;;21.80;;
59062;SDS011;44851;45.648;9.004;2023-12-20T13:01:06;26.10;;;22.60;;
59062;SDS011;44851;45.648;9.004;2023-12-20T13:03:32;23.67;;;21.13;;
59062;SDS011;44851;45.648;9.004;2023-12-20T13:05:57;24.93;;;21.60;;
59062;SDS011;44851;45.648;9.004;2023-12-20T13:08:22;23.40;;;20.90;;
59062;SDS011;44851;45.648;9.004;2023-12-20T13:10:48;24.77;;;21.23;;
59062;SDS011;44851;45.648;9.004;2023-12-20T13:13:14;27.93;;;22.07;;
59062;SDS011;44851;45.648;9.004;2023-12-20T13:15:39;25.07;;;22.37;;
59062;SDS011;44851;45.648;9.004;2023-12-20T13:18:05;30.33;;;25.67;;
59062;SDS011;44851;45.648;9.004;2023-12-20T13:20:31;35.87;;;28.40;;
59062;SDS011;44851;45.648;9.004;2023-12-20T13:22:58;28.73;;;25.67;;
59062;SDS011;44851;45.648;9.004;2023-12-20T13:25:23;34.03;;;27.50;;
59062;SDS011;44851;45.648;9.004;2023-12-20T13:27:49;31.07;;;27.60;;
59062;SDS011;44851;45.648;9.004;2023-12-20T13:30:15;30.57;;;27.27;;
59062;SDS011;44851;45.648;9.004;2023-12-20T13:32:41;29.93;;;26.63;;
59062;SDS011;44851;45.648;9.004;2023-12-20T13:35:06;29.80;;;26.47;;
59062;SDS011;44851;45.648;9.004;2023-12-20T13:37:32;29.77;;;26.57;;
59062;SDS011;44851;45.648;9.004;2023-12-20T13:39:57;34.63;;;28.50;;
59062;SDS011;44851;45.648;9.004;2023-12-20T13:42:22;32.97;;;29.53;;
59062;SDS011;44851;45.648;9.004;2023-12-20T13:44:48;33.07;;;28.93;;
59062;SDS011;44851;45.648;9.004;2023-12-20T13:47:13;32.50;;;28.50;;
59062;SDS011;44851;45.648;9.004;2023-12-20T13:49:38;32.20;;;28.67;;
59062;SDS011;44851;45.648;9.004;2023-12-20T13:52:04;36.33;;;29.77;;
59062;SDS011;44851;45.648;9.004;2023-12-20T13:54:29;33.13;;;29.63;;
59062;SDS011;44851;45.648;9.004;2023-12-20T13:56:55;33.37;;;29.37;;
59062;SDS011;44851;45.648;9.004;2023-12-20T13:59:20;37.27;;;32.53;;
59062;SDS011;44851;45.648;9.004;2023-12-20T14:01:45;35.67;;;31.87;;
59062;SDS011;44851;45.648;9.004;2023-12-20T14:04:11;33.73;;;30.07;;
59062;SDS011;44851;45.648;9.004;2023-12-20T14:06:36;37.90;;;30.77;;
59062;SDS011;44851;45.648;9.004;2023-12-20T14:09:02;35.37;;;30.60;;
59062;SDS011;44851;45.648;9.004;2023-12-20T14:11:28;36.53;;;32.57;;
59062;SDS011;44851;45.648;9.004;2023-12-20T14:13:54;33.60;;;29.90;;
59062;SDS011;44851;45.648;9.004;2023-12-20T14:16:23;35.63;;;31.27;;
59062;SDS011;44851;45.648;9.004;2023-12-20T14:18:49;36.20;;;32.17;;
59062;SDS011;44851;45.648;9.004;2023-12-20T14:21:14;35.90;;;31.90;;